Time;durP1;ratioP1;P1;durP2;ratioP2;P2;SDS_P1;SDS_P2;PMS_P1;PMS_P2;Temp;Humidity;BMP_temperature;BMP_pressure;BME280_temperature;BME280_humidity;BME280_pressure;Samples;Min_cycle;Max_cycle;Signal;HPM_P1;HPM_P2
2023/04/07 00:00:18;;;;;;;1.60;1.60;;;17.60;61.90;;;;;;5029799;28;43521;-80
2023/04/07 00:02:47;;;;;;;1.70;1.70;;;17.50;61.90;;;;;;5033856;28;43614;-79
2023/04/07 00:05:15;;;;;;;1.80;1.80;;;17.50;62.00;;;;;;5028028;28;45791;-80
2023/04/07 00:07:43;;;;;;;1.57;1.57;;;17.60;61.90;;;;;;5026934;28;45324;-80
2023/04/07 00:10:25;;;;;;;1.57;1.57;;;17.60;61.60;;;;;;5031621;28;43429;-80
2023/04/07 00:12:53;;;;;;;1.60;1.60;;;17.70;61.40;;;;;;5031072;28;43606;-80
2023/04/07 00:15:21;;;;;;;1.50;1.50;;;17.70;61.50;;;;;;5048785;28;43769;-80
2023/04/07 00:17:49;;;;;;;1.63;1.63;;;17.70;61.70;;;;;;5027520;28;44734;-81
2023/04/07 00:20:18;;;;;;;1.60;1.60;;;17.60;61.70;;;;;;5052479;28;43333;-81
2023/04/07 00:22:46;;;;;;;1.90;1.90;;;17.60;62.20;;;;;;5031925;28;43388;-80
2023/04/07 00:25:14;;;;;;;1.77;1.77;;;17.60;61.60;;;;;;5021279;28;46144;-80
2023/04/07 00:27:43;;;;;;;1.50;1.50;;;17.60;62.50;;;;;;5030598;28;45361;-79
2023/04/07 00:30:11;;;;;;;1.70;1.70;;;17.60;61.90;;;;;;5036552;28;44386;-78
2023/04/07 00:32:39;;;;;;;1.90;1.80;;;17.60;62.00;;;;;;5018106;28;43654;-80
2023/04/07 00:35:08;;;;;;;1.93;1.50;;;17.60;62.00;;;;;;5040778;28;43825;-80
2023/04/07 00:37:36;;;;;;;1.73;1.73;;;17.60;61.90;;;;;;5049173;28;43933;-81
2023/04/07 00:40:06;;;;;;;1.80;1.70;;;17.60;61.60;;;;;;5028910;28;43423;-79
2023/04/07 00:42:34;;;;;;;1.60;1.60;;;17.70;61.60;;;;;;5042452;28;43871;-79
2023/04/07 00:45:04;;;;;;;1.57;1.57;;;17.60;61.80;;;;;;5017305;28;46337;-79
2023/04/07 00:47:32;;;;;;;1.77;1.77;;;17.60;61.80;;;;;;5022345;28;44905;-81
2023/04/07 00:50:00;;;;;;;1.70;1.70;;;17.60;62.60;;;;;;5025953;28;43402;-80
2023/04/07 00:52:28;;;;;;;1.53;1.53;;;17.60;61.90;;;;;;5030102;28;43464;-80
2023/04/07 00:54:57;;;;;;;1.60;1.60;;;17.60;61.80;;;;;;5020602;28;45315;-80
2023/04/07 00:57:25;;;;;;;1.80;1.80;;;17.60;62.00;;;;;;5028487;28;44781;-79
2023/04/07 00:59:53;;;;;;;1.67;1.57;;;17.50;61.90;;;;;;5028574;28;43448;-79
2023/04/07 01:02:25;;;;;;;1.70;1.70;;;17.50;62.10;;;;;;5026434;28;43639;-79
2023/04/07 01:04:56;;;;;;;1.93;1.80;;;17.50;62.00;;;;;;5044274;22;46036;-76
2023/04/07 01:07:28;;;;;;;2.20;2.10;;;17.50;62.00;;;;;;5074459;28;43353;-71
2023/04/07 01:10:06;;;;;;;1.60;1.60;;;17.60;61.90;;;;;;5056001;28;43412;-72
2023/04/07 01:12:44;;;;;;;1.73;1.73;;;17.70;61.60;;;;;;5046672;28;43590;-72
2023/04/07 01:15:14;;;;;;;1.67;1.67;;;17.70;61.40;;;;;;5056571;28;45865;-72
2023/04/07 01:17:48;;;;;;;1.80;1.80;;;17.70;61.60;;;;;;5049444;28;44452;-73
2023/04/07 01:20:17;;;;;;;1.80;1.80;;;17.70;61.70;;;;;;5066048;28;43392;-72
2023/04/07 01:22:53;;;;;;;1.70;1.70;;;17.60;61.60;;;;;;5056865;28;44051;-71
2023/04/07 01:25:27;;;;;;;1.67;1.67;;;17.70;61.50;;;;;;5049792;28;46495;-71
2023/04/07 01:28:02;;;;;;;1.80;1.80;;;17.60;61.60;;;;;;5049568;28;44773;-71
2023/04/07 01:30:33;;;;;;;1.63;1.63;;;17.60;61.70;;;;;;5070284;28;43434;-71
2023/04/07 01:33:01;;;;;;;1.80;1.80;;;17.60;61.70;;;;;;5052015;28;44015;-71
2023/04/07 01:35:30;;;;;;;1.63;1.63;;;17.60;61.90;;;;;;5074682;28;43916;-71
2023/04/07 01:37:59;;;;;;;1.73;1.70;;;17.60;61.90;;;;;;5071111;28;43447;-71
2023/04/07 01:40:27;;;;;;;1.80;1.80;;;17.60;61.70;;;;;;5070802;28;43519;-72
2023/04/07 01:42:55;;;;;;;1.70;1.70;;;17.60;61.90;;;;;;5067222;28;43490;-71
2023/04/07 01:45:23;;;;;;;1.77;1.77;;;17.60;62.00;;;;;;5056873;28;46125;-71
2023/04/07 01:47:53;;;;;;;1.70;1.70;;;17.50;61.90;;;;;;5064355;28;43484;-71
2023/04/07 01:50:21;;;;;;;1.70;1.70;;;17.60;62.00;;;;;;5056546;28;44420;-72
2023/04/07 01:52:49;;;;;;;1.90;1.90;;;17.50;62.00;;;;;;5069833;28;43512;-72
2023/04/07 01:55:17;;;;;;;1.80;1.80;;;17.60;61.90;;;;;;5068064;28;43603;-71
2023/04/07 01:57:55;;;;;;;1.67;1.67;;;17.70;61.70;;;;;;5045198;28;43494;-71
2023/04/07 02:00:23;;;;;;;1.70;1.70;;;17.80;61.30;;;;;;5050560;28;43507;-72
2023/04/07 02:02:55;;;;;;;1.83;1.83;;;17.80;61.10;;;;;;5056355;28;44127;-72
2023/04/07 02:05:23;;;;;;;1.60;1.60;;;17.80;61.30;;;;;;5048835;28;45660;-72
2023/04/07 02:07:53;;;;;;;1.80;1.80;;;17.70;61.40;;;;;;5074365;28;44315;-72
2023/04/07 02:10:23;;;;;;;1.80;1.80;;;17.70;61.20;;;;;;5052069;28;43874;-72
2023/04/07 02:12:53;;;;;;;1.90;1.90;;;17.70;61.40;;;;;;5051968;28;43609;-70
2023/04/07 02:15:23;;;;;;;1.60;1.60;;;17.70;61.50;;;;;;5052737;28;44804;-72
2023/04/07 02:17:54;;;;;;;1.80;1.80;;;17.60;62.20;;;;;;5055820;28;43954;-72
2023/04/07 02:20:23;;;;;;;1.87;1.87;;;17.60;61.70;;;;;;5054662;28;43419;-72
2023/04/07 02:22:50;;;;;;;1.90;1.90;;;17.60;61.80;;;;;;5068822;28;44267;-72
2023/04/07 02:25:22;;;;;;;1.60;1.60;;;17.60;61.60;;;;;;5054463;28;45787;-72
2023/04/07 02:27:51;;;;;;;1.80;1.80;;;17.50;61.70;;;;;;5069066;28;43909;-70
2023/04/07 02:30:19;;;;;;;1.90;1.90;;;17.60;61.90;;;;;;5067949;28;44020;-72
2023/04/07 02:32:47;;;;;;;1.90;1.90;;;17.50;61.90;;;;;;5054689;28;44031;-72
2023/04/07 02:35:16;;;;;;;1.80;1.80;;;17.50;61.90;;;;;;5048053;28;47062;-72
2023/04/07 02:37:44;;;;;;;1.80;1.80;;;17.50;61.90;;;;;;5052595;28;44748;-70
2023/04/07 02:40:12;;;;;;;2.03;2.03;;;17.50;61.80;;;;;;5048225;28;43849;-70
2023/04/07 02:42:40;;;;;;;1.90;1.90;;;17.60;61.60;;;;;;5064637;28;43484;-71
2023/04/07 02:45:09;;;;;;;2.00;2.00;;;17.70;61.30;;;;;;5070713;28;44020;-70
2023/04/07 02:47:37;;;;;;;1.80;1.80;;;17.70;61.20;;;;;;5072932;28;43466;-73
2023/04/07 02:50:06;;;;;;;1.70;1.70;;;17.70;61.40;;;;;;5051395;28;44005;-72
2023/04/07 02:52:37;;;;;;;1.77;1.77;;;17.70;61.40;;;;;;5069691;28;43511;-71
2023/04/07 02:55:11;;;;;;;1.90;1.90;;;17.60;61.40;;;;;;5052690;28;44064;-71
2023/04/07 02:57:39;;;;;;;1.80;1.80;;;17.60;61.30;;;;;;5068853;28;44872;-71
2023/04/07 03:00:14;;;;;;;1.83;1.83;;;17.60;61.50;;;;;;5054588;28;43386;-71
2023/04/07 03:03:07;;;;;;;1.90;1.90;;;17.60;61.60;;;;;;5046453;28;43519;-71
2023/04/07 03:05:38;;;;;;;2.27;2.17;;;17.60;61.70;;;;;;5047913;28;45684;-71
2023/04/07 03:08:08;;;;;;;1.90;1.90;;;17.50;61.70;;;;;;5053123;28;43402;-71
2023/04/07 03:10:39;;;;;;;2.10;2.00;;;17.50;61.60;;;;;;5054369;28;43471;-71
2023/04/07 03:13:08;;;;;;;1.73;1.73;;;17.50;61.50;;;;;;5054902;28;43487;-71
2023/04/07 03:15:37;;;;;;;1.93;1.87;;;17.60;61.80;;;;;;5048915;28;43824;-71
2023/04/07 03:18:06;;;;;;;2.20;1.80;;;17.50;61.70;;;;;;5051571;28;44998;-71
2023/04/07 03:20:35;;;;;;;1.90;1.90;;;17.50;61.70;;;;;;5053007;28;43973;-72
2023/04/07 03:23:10;;;;;;;1.93;1.93;;;17.50;61.80;;;;;;5056651;28;43606;-72
2023/04/07 03:25:38;;;;;;;2.40;1.87;;;17.50;61.60;;;;;;5043410;28;44712;-72
2023/04/07 03:28:06;;;;;;;1.70;1.70;;;17.60;61.50;;;;;;5057957;28;44634;-71
2023/04/07 03:30:38;;;;;;;1.77;1.77;;;17.70;61.30;;;;;;5056515;28;43456;-72
2023/04/07 03:33:07;;;;;;;1.80;1.80;;;17.70;61.10;;;;;;5049456;28;43511;-72
2023/04/07 03:35:35;;;;;;;1.97;1.97;;;17.70;61.40;;;;;;5076621;28;43770;-71
2023/04/07 03:38:03;;;;;;;2.10;2.00;;;17.70;61.40;;;;;;5052820;28;44591;-71
2023/04/07 03:40:34;;;;;;;1.80;1.80;;;17.60;61.20;;;;;;5055213;28;43843;-71
2023/04/07 03:43:02;;;;;;;2.00;1.90;;;17.70;61.10;;;;;;5052522;28;43475;-72
2023/04/07 03:45:30;;;;;;;2.07;1.77;;;17.60;61.20;;;;;;5073356;28;43882;-72
2023/04/07 03:47:58;;;;;;;1.70;1.70;;;17.60;61.40;;;;;;5053864;28;45200;-71
2023/04/07 03:50:27;;;;;;;1.80;1.80;;;17.60;61.50;;;;;;5072079;28;43456;-72
2023/04/07 03:53:08;;;;;;;1.90;1.90;;;17.60;61.60;;;;;;5054387;28;43562;-72
2023/04/07 03:55:37;;;;;;;1.83;1.83;;;17.60;61.60;;;;;;5051730;28;45801;-72
2023/04/07 03:58:13;;;;;;;1.90;1.90;;;17.60;61.50;;;;;;5057002;28;44593;-72
2023/04/07 04:00:41;;;;;;;2.00;1.90;;;17.70;61.20;;;;;;5055373;28;43483;-72
2023/04/07 04:03:11;;;;;;;1.70;1.70;;;17.70;61.10;;;;;;5074490;28;43543;-72
2023/04/07 04:06:00;;;;;;;1.80;1.80;;;17.70;61.20;;;;;;5050444;28;44047;-72
2023/04/07 04:08:31;;;;;;;1.90;1.80;;;17.70;61.40;;;;;;5055298;28;45040;-72
2023/04/07 04:11:01;;;;;;;1.63;1.63;;;17.60;61.30;;;;;;5054737;28;43468;-71
2023/04/07 04:13:36;;;;;;;2.03;2.03;;;17.60;61.20;;;;;;5047490;28;43484;-72
2023/04/07 04:16:06;;;;;;;1.90;1.90;;;17.60;61.30;;;;;;5057472;28;43948;-71
2023/04/07 04:18:37;;;;;;;1.60;1.60;;;17.60;61.50;;;;;;5055115;28;43443;-72
2023/04/07 04:21:09;;;;;;;1.90;1.80;;;17.60;61.60;;;;;;5050462;28;43520;-72
2023/04/07 04:23:40;;;;;;;2.00;1.80;;;17.50;61.60;;;;;;5054019;28;43398;-72
2023/04/07 04:26:10;;;;;;;1.83;1.83;;;17.50;61.60;;;;;;5056002;28;44154;-71
2023/04/07 04:28:40;;;;;;;1.80;1.80;;;17.50;61.30;;;;;;5058597;28;43410;-71
2023/04/07 04:31:09;;;;;;;1.70;1.60;;;17.60;61.70;;;;;;5051902;28;43998;-72
2023/04/07 04:33:41;;;;;;;1.73;1.73;;;17.50;61.60;;;;;;5051982;28;43500;-72
2023/04/07 04:36:09;;;;;;;1.93;1.93;;;17.50;61.70;;;;;;5073418;28;45793;-72
2023/04/07 04:38:37;;;;;;;1.80;1.80;;;17.50;61.90;;;;;;5055199;28;43923;-72
2023/04/07 04:41:19;;;;;;;2.27;2.17;;;17.50;61.70;;;;;;5049297;28;44026;-72
2023/04/07 04:43:50;;;;;;;2.00;2.00;;;17.60;61.50;;;;;;5067547;28;43587;-72
2023/04/07 04:46:23;;;;;;;1.83;1.83;;;17.70;61.30;;;;;;5050258;28;45313;-72
2023/04/07 04:48:51;;;;;;;2.17;2.17;;;17.70;60.90;;;;;;5051071;28;45551;-71
2023/04/07 04:51:20;;;;;;;1.80;1.80;;;17.80;60.70;;;;;;5064018;28;43411;-71
2023/04/07 04:53:54;;;;;;;1.73;1.73;;;17.70;60.80;;;;;;5064185;28;44055;-71
2023/04/07 04:56:26;;;;;;;1.70;1.70;;;17.70;61.00;;;;;;5055668;28;44336;-72
2023/04/07 04:58:59;;;;;;;2.00;2.00;;;17.70;60.80;;;;;;5060818;28;44716;-72
2023/04/07 05:01:47;;;;;;;1.70;1.70;;;17.70;60.90;;;;;;5054722;28;44238;-72
2023/04/07 05:04:17;;;;;;;1.70;1.70;;;17.70;61.20;;;;;;5052206;28;43547;-71
2023/04/07 05:06:53;;;;;;;1.80;1.80;;;17.70;61.30;;;;;;5049616;28;45826;-72
2023/04/07 05:09:28;;;;;;;2.00;2.00;;;17.60;62.10;;;;;;5046169;28;44362;-71
2023/04/07 05:11:58;;;;;;;1.90;1.90;;;17.60;61.30;;;;;;5065842;28;43485;-72
2023/04/07 05:14:28;;;;;;;1.90;1.90;;;17.60;61.00;;;;;;5050190;28;43608;-72
2023/04/07 05:17:03;;;;;;;1.67;1.67;;;17.60;61.20;;;;;;5065000;28;44026;-71
2023/04/07 05:19:32;;;;;;;1.87;1.87;;;17.60;61.40;;;;;;5048584;28;44612;-72
2023/04/07 05:22:10;;;;;;;2.10;2.00;;;17.60;61.40;;;;;;5051410;28;43538;-72
2023/04/07 05:24:47;;;;;;;1.90;1.90;;;17.50;61.40;;;;;;5045263;28;43510;-72
2023/04/07 05:27:16;;;;;;;2.20;2.20;;;17.60;61.50;;;;;;5049747;28;45738;-72
2023/04/07 05:29:48;;;;;;;2.10;2.10;;;17.50;61.10;;;;;;5049164;28;43468;-72
2023/04/07 05:32:25;;;;;;;1.70;1.70;;;17.60;61.50;;;;;;5048344;28;44237;-72
2023/04/07 05:34:54;;;;;;;1.80;1.80;;;17.60;61.50;;;;;;5047011;28;43512;-72
2023/04/07 05:37:23;;;;;;;2.00;1.90;;;17.50;61.50;;;;;;5055510;28;44041;-72
2023/04/07 05:39:52;;;;;;;2.00;2.00;;;17.50;61.60;;;;;;5043256;28;45012;-72
2023/04/07 05:42:21;;;;;;;2.07;2.07;;;17.50;61.40;;;;;;5065107;28;43428;-73
2023/04/07 05:44:52;;;;;;;2.10;2.10;;;17.60;61.30;;;;;;5066093;28;43392;-72
2023/04/07 05:47:22;;;;;;;1.90;1.90;;;17.70;61.10;;;;;;5051048;28;46018;-72
2023/04/07 05:49:51;;;;;;;1.90;1.90;;;17.80;60.80;;;;;;5049652;28;44999;-71
2023/04/07 05:52:19;;;;;;;2.00;2.00;;;17.80;60.60;;;;;;5068625;28;43989;-72
2023/04/07 05:54:55;;;;;;;2.00;2.00;;;17.80;60.80;;;;;;5064274;28;43437;-72
2023/04/07 05:57:28;;;;;;;2.23;2.23;;;17.70;60.80;;;;;;5065502;28;43965;-72
2023/04/07 05:59:58;;;;;;;2.30;2.20;;;17.70;60.70;;;;;;5069387;28;43546;-72
2023/04/07 06:02:27;;;;;;;2.30;2.20;;;17.70;60.80;;;;;;5063163;28;43462;-71
2023/04/07 06:04:56;;;;;;;2.00;2.00;;;17.70;61.00;;;;;;5066763;28;44438;-72
2023/04/07 06:07:25;;;;;;;2.00;2.00;;;17.60;61.20;;;;;;5064395;28;43631;-71
2023/04/07 06:09:52;;;;;;;1.90;1.90;;;17.60;61.20;;;;;;5050851;28;45040;-71
2023/04/07 06:12:20;;;;;;;2.20;2.20;;;17.60;61.30;;;;;;5052088;28;43500;-71
2023/04/07 06:14:53;;;;;;;2.07;2.07;;;17.50;61.10;;;;;;5047442;28;43526;-71
2023/04/07 06:17:23;;;;;;;1.90;1.90;;;17.50;61.20;;;;;;5047801;28;44813;-71
2023/04/07 06:19:51;;;;;;;1.70;1.70;;;17.60;61.40;;;;;;5048834;28;45176;-72
2023/04/07 06:22:19;;;;;;;2.00;2.00;;;17.50;61.40;;;;;;5065158;28;44021;-72
2023/04/07 06:24:47;;;;;;;2.10;2.10;;;17.50;61.50;;;;;;5065712;28;44060;-71
2023/04/07 06:27:17;;;;;;;1.80;1.80;;;17.50;61.60;;;;;;5048509;28;45424;-71
2023/04/07 06:29:47;;;;;;;2.10;2.10;;;17.50;61.50;;;;;;5048168;28;44692;-71
2023/04/07 06:32:17;;;;;;;1.70;1.70;;;17.50;61.40;;;;;;5049676;28;43424;-72
2023/04/07 06:34:46;;;;;;;2.10;2.10;;;17.50;61.50;;;;;;5051486;28;43732;-72
2023/04/07 06:37:15;;;;;;;2.00;2.00;;;17.50;61.50;;;;;;5047166;28;45581;-75
2023/04/07 06:39:44;;;;;;;1.93;1.93;;;17.50;61.60;;;;;;5065777;28;43371;-75
2023/04/07 06:42:12;;;;;;;2.10;2.10;;;17.50;61.70;;;;;;5062443;28;43404;-75
2023/04/07 06:44:49;;;;;;;2.03;2.03;;;17.50;61.60;;;;;;5062188;28;43628;-75
2023/04/07 06:47:19;;;;;;;1.90;1.90;;;17.50;61.50;;;;;;5054036;28;45053;-75
2023/04/07 06:49:46;;;;;;;2.00;2.00;;;17.60;61.20;;;;;;5057011;28;43470;-74
2023/04/07 06:52:15;;;;;;;2.27;2.27;;;17.70;60.90;;;;;;5061160;28;43554;-75
2023/04/07 06:54:43;;;;;;;1.90;1.90;;;17.70;60.80;;;;;;5046453;28;43622;-77
2023/04/07 06:57:13;;;;;;;2.20;2.13;;;17.70;61.10;;;;;;5048440;28;45038;-77
2023/04/07 06:59:41;;;;;;;2.00;2.00;;;17.70;61.10;;;;;;5064924;28;43905;-75
2023/04/07 07:02:09;;;;;;;2.20;2.20;;;17.70;61.00;;;;;;5062881;28;43505;-76
2023/04/07 07:04:39;;;;;;;2.00;2.00;;;17.60;61.10;;;;;;5064428;28;43515;-76
2023/04/07 07:07:07;;;;;;;1.97;1.97;;;17.60;61.20;;;;;;5065932;28;44108;-77
2023/04/07 07:09:35;;;;;;;2.00;1.90;;;17.60;61.30;;;;;;5047137;28;44924;-75
2023/04/07 07:12:03;;;;;;;2.10;2.10;;;17.60;61.50;;;;;;5069547;28;43446;-77
2023/04/07 07:14:31;;;;;;;2.00;2.00;;;17.60;61.50;;;;;;5061351;28;43543;-76
2023/04/07 07:16:59;;;;;;;2.20;2.20;;;17.50;61.30;;;;;;5063971;28;44144;-76
2023/04/07 07:19:27;;;;;;;2.07;2.07;;;17.60;61.50;;;;;;5065431;28;43500;-77
2023/04/07 07:21:56;;;;;;;2.17;2.17;;;17.50;61.50;;;;;;5048321;28;43416;-77
2023/04/07 07:24:24;;;;;;;2.10;2.10;;;17.50;61.60;;;;;;5057439;28;43540;-77
2023/04/07 07:26:52;;;;;;;2.23;2.13;;;17.50;61.80;;;;;;5071270;28;43975;-77
2023/04/07 07:29:20;;;;;;;2.00;2.00;;;17.50;61.70;;;;;;5067031;28;43981;-76
2023/04/07 07:31:48;;;;;;;2.13;2.13;;;17.50;61.60;;;;;;5062648;28;43909;-77
2023/04/07 07:34:16;;;;;;;2.10;1.97;;;17.50;61.70;;;;;;5050592;28;44211;-77
2023/04/07 07:36:44;;;;;;;2.00;1.90;;;17.50;61.80;;;;;;5068661;28;43604;-77
2023/04/07 07:39:14;;;;;;;1.70;1.70;;;17.50;61.90;;;;;;5066202;28;43580;-76
2023/04/07 07:41:42;;;;;;;2.77;1.97;;;17.50;61.90;;;;;;5048148;28;44559;-76
2023/04/07 07:44:10;;;;;;;2.00;1.90;;;17.50;62.00;;;;;;5065800;28;43969;-77
2023/04/07 07:46:38;;;;;;;2.57;2.20;;;17.50;62.00;;;;;;5057378;28;43911;-76
2023/04/07 07:49:06;;;;;;;2.17;2.10;;;17.60;61.70;;;;;;5055869;28;43537;-77
2023/04/07 07:51:34;;;;;;;2.23;2.13;;;17.70;61.40;;;;;;5056669;28;43409;-76
2023/04/07 07:54:02;;;;;;;1.80;1.80;;;17.70;61.10;;;;;;5038041;28;43527;-75
2023/04/07 07:56:31;;;;;;;2.33;2.23;;;17.70;61.40;;;;;;5042751;28;46155;-76
2023/04/07 07:58:59;;;;;;;2.10;2.10;;;17.70;61.50;;;;;;5058268;28;43476;-75
2023/04/07 08:01:27;;;;;;;1.97;1.90;;;17.70;61.50;;;;;;5040502;28;44481;-77
2023/04/07 08:03:55;;;;;;;1.93;1.93;;;17.70;61.60;;;;;;5058695;28;43450;-75
2023/04/07 08:06:24;;;;;;;1.90;1.90;;;17.60;61.70;;;;;;5057930;28;43847;-77
2023/04/07 08:08:52;;;;;;;1.90;1.90;;;17.60;61.80;;;;;;5056710;28;43608;-75
2023/04/07 08:11:20;;;;;;;2.03;1.93;;;17.60;62.00;;;;;;5060755;28;43531;-75
2023/04/07 08:13:49;;;;;;;1.77;1.77;;;17.60;62.20;;;;;;5044340;28;43468;-78
2023/04/07 08:16:18;;;;;;;1.87;1.87;;;17.60;62.20;;;;;;5064726;28;45797;-76
2023/04/07 08:18:46;;;;;;;1.90;1.90;;;17.50;62.20;;;;;;5063229;28;43416;-78
2023/04/07 08:21:18;;;;;;;2.20;2.20;;;17.60;62.30;;;;;;5060628;28;43445;-77
2023/04/07 08:23:46;;;;;;;1.70;1.70;;;17.60;62.40;;;;;;5061830;28;44137;-77
2023/04/07 08:26:15;;;;;;;1.80;1.80;;;17.50;62.50;;;;;;5060795;28;43929;-78
2023/04/07 08:28:43;;;;;;;1.73;1.73;;;17.50;62.50;;;;;;5061741;28;43519;-76
2023/04/07 08:31:12;;;;;;;2.00;1.90;;;17.50;62.40;;;;;;5062381;28;43465;-76
2023/04/07 08:33:40;;;;;;;1.87;1.87;;;17.50;62.50;;;;;;5061647;28;43505;-76
2023/04/07 08:36:10;;;;;;;2.17;2.17;;;17.50;62.50;;;;;;5062527;28;43874;-77
2023/04/07 08:38:38;;;;;;;2.10;2.10;;;17.50;62.50;;;;;;5039630;28;44352;-76
2023/04/07 08:41:11;;;;;;;1.90;1.90;;;17.50;62.80;;;;;;5061009;28;43468;-76
2023/04/07 08:43:40;;;;;;;2.00;2.00;;;17.50;62.80;;;;;;5063957;28;43459;-76
2023/04/07 08:46:08;;;;;;;2.40;2.30;;;17.50;62.90;;;;;;5059932;28;43897;-77
2023/04/07 08:48:38;;;;;;;2.00;2.00;;;17.50;62.70;;;;;;5045427;28;45118;-77
2023/04/07 08:51:07;;;;;;;2.20;2.13;;;17.60;62.50;;;;;;5060059;28;44083;-77
2023/04/07 08:53:37;;;;;;;2.27;2.27;;;17.70;62.20;;;;;;5057442;28;43346;-76
2023/04/07 08:56:06;;;;;;;2.40;2.40;;;17.80;62.10;;;;;;5043758;28;45850;-76
2023/04/07 08:58:34;;;;;;;2.50;2.40;;;17.70;62.10;;;;;;5058941;28;43535;-77
2023/04/07 09:01:03;;;;;;;2.07;2.07;;;17.70;62.20;;;;;;5062272;28;43496;-76
2023/04/07 09:03:31;;;;;;;2.37;2.27;;;17.70;62.10;;;;;;5054055;28;43573;-77
2023/04/07 09:06:01;;;;;;;2.10;2.10;;;17.70;62.30;;;;;;5030348;28;45002;-77
2023/04/07 09:08:29;;;;;;;2.40;2.30;;;17.70;62.40;;;;;;5026014;28;43563;-76
2023/04/07 09:10:57;;;;;;;2.20;2.10;;;17.60;62.50;;;;;;5045392;28;43481;-76
2023/04/07 09:13:25;;;;;;;2.43;2.37;;;17.60;62.60;;;;;;5045867;28;43410;-76
2023/04/07 09:15:53;;;;;;;2.07;2.07;;;17.60;62.90;;;;;;5032176;28;45600;-77
2023/04/07 09:18:21;;;;;;;2.20;2.20;;;17.60;62.70;;;;;;5045266;28;43771;-76
2023/04/07 09:20:57;;;;;;;2.20;2.10;;;17.60;62.90;;;;;;5050728;28;44054;-76
2023/04/07 09:23:30;;;;;;;2.37;2.37;;;17.60;63.00;;;;;;5050351;28;43495;-76
2023/04/07 09:26:00;;;;;;;2.20;2.10;;;17.60;63.20;;;;;;5044012;28;43876;-74
2023/04/07 09:28:46;;;;;;;2.50;2.40;;;17.50;63.20;;;;;;5021963;28;44841;-76
2023/04/07 09:31:14;;;;;;;2.40;2.30;;;17.50;63.40;;;;;;5030330;28;43508;-76
2023/04/07 09:33:42;;;;;;;2.37;2.23;;;17.50;63.40;;;;;;5045717;28;43505;-76
2023/04/07 09:36:11;;;;;;;2.37;2.27;;;17.60;63.90;;;;;;5025587;28;45868;-77
2023/04/07 09:38:41;;;;;;;2.70;2.60;;;17.60;63.00;;;;;;5026512;28;44986;-77
2023/04/07 09:41:09;;;;;;;2.50;2.40;;;17.70;63.00;;;;;;5045397;28;43419;-76
2023/04/07 09:43:38;;;;;;;3.47;2.40;;;17.60;62.90;;;;;;5028847;28;43542;-76
2023/04/07 09:46:09;;;;;;;2.70;2.60;;;17.60;63.00;;;;;;5027031;28;45709;-76
2023/04/07 09:48:37;;;;;;;2.50;2.40;;;17.60;63.10;;;;;;5028603;28;45006;-76
2023/04/07 09:51:06;;;;;;;2.43;2.23;;;17.60;63.00;;;;;;5043423;28;43473;-76
2023/04/07 09:53:54;;;;;;;2.87;2.70;;;17.60;63.20;;;;;;5045838;28;43475;-75
2023/04/07 09:56:22;;;;;;;2.93;2.80;;;17.60;63.10;;;;;;5025201;28;45862;-75
2023/04/07 09:58:51;;;;;;;2.47;2.37;;;17.60;63.20;;;;;;5046507;28;43524;-75
2023/04/07 10:01:20;;;;;;;2.57;2.47;;;17.60;63.20;;;;;;5042674;28;43521;-76
2023/04/07 10:03:49;;;;;;;2.80;2.70;;;17.60;63.30;;;;;;5037111;28;43551;-77
2023/04/07 10:06:18;;;;;;;2.53;2.37;;;17.60;63.10;;;;;;5043453;28;43699;-75
2023/04/07 10:08:46;;;;;;;2.63;2.53;;;17.60;63.20;;;;;;5043699;28;43924;-76
2023/04/07 10:11:16;;;;;;;2.60;2.50;;;17.60;63.30;;;;;;5027893;28;43445;-77
2023/04/07 10:13:44;;;;;;;2.43;2.33;;;17.60;63.30;;;;;;5041724;28;43560;-76
2023/04/07 10:16:13;;;;;;;2.40;2.30;;;17.60;63.40;;;;;;5027889;28;45959;-76
2023/04/07 10:18:41;;;;;;;2.57;2.47;;;17.60;64.30;;;;;;5026842;28;44389;-76
2023/04/07 10:21:09;;;;;;;2.50;2.40;;;17.70;63.50;;;;;;5024979;28;43464;-75
2023/04/07 10:23:44;;;;;;;2.40;2.30;;;17.80;63.20;;;;;;5050222;28;43491;-75
2023/04/07 10:26:13;;;;;;;3.00;2.83;;;17.80;62.70;;;;;;5045896;28;43867;-76
2023/04/07 10:28:42;;;;;;;2.50;2.40;;;17.80;62.70;;;;;;5028503;28;44970;-76
2023/04/07 10:31:10;;;;;;;2.47;2.37;;;17.80;62.80;;;;;;5045280;28;43515;-76
2023/04/07 10:33:45;;;;;;;2.53;2.43;;;17.80;63.10;;;;;;5025738;28;43503;-75
2023/04/07 10:36:13;;;;;;;2.47;2.37;;;17.80;62.90;;;;;;5028684;28;45521;-77
2023/04/07 10:38:42;;;;;;;2.83;2.67;;;17.70;62.80;;;;;;5040801;28;44487;-78
2023/04/07 10:41:33;;;;;;;2.40;2.40;;;17.70;63.00;;;;;;5024604;28;43484;-76
2023/04/07 10:44:02;;;;;;;2.47;2.47;;;17.70;63.20;;;;;;5042820;28;43476;-77
2023/04/07 10:47:05;;;;;;;2.80;2.60;;;17.70;63.30;;;;;;5041144;28;44056;-76
2023/04/07 10:49:33;;;;;;;2.33;2.23;;;17.60;63.20;;;;;;5024614;28;44936;-77
2023/04/07 10:52:23;;;;;;;2.33;2.33;;;17.70;63.50;;;;;;5042069;28;44051;-76
2023/04/07 10:55:24;;;;;;;2.30;2.20;;;17.60;63.40;;;;;;5038564;28;43467;-75
2023/04/07 10:58:18;;;;;;;2.40;2.40;;;17.60;63.50;;;;;;5044699;28;46026;-76
2023/04/07 11:01:22;;;;;;;2.47;2.40;;;17.60;63.60;;;;;;5034848;28;43575;-76
2023/04/07 11:04:03;;;;;;;2.50;2.40;;;17.60;63.70;;;;;;5047726;28;43519;-76
2023/04/07 11:06:31;;;;;;;2.40;2.30;;;17.60;63.60;;;;;;5056688;28;43504;-76
2023/04/07 11:09:00;;;;;;;2.27;2.27;;;17.60;64.30;;;;;;5061204;28;44067;-78
2023/04/07 11:11:39;;;;;;;2.60;2.50;;;17.60;63.70;;;;;;5057933;28;43650;-74
2023/04/07 11:14:07;;;;;;;2.70;2.60;;;17.60;63.70;;;;;;5059569;28;44106;-77
2023/04/07 11:16:41;;;;;;;2.83;2.73;;;17.60;63.80;;;;;;5042720;28;43406;-77
2023/04/07 11:19:10;;;;;;;2.40;2.30;;;17.60;63.80;;;;;;5041196;28;45585;-75
2023/04/07 11:21:38;;;;;;;2.40;2.30;;;17.70;63.80;;;;;;5059205;28;43518;-76
2023/04/07 11:24:06;;;;;;;2.60;2.40;;;17.80;63.50;;;;;;5060930;28;43472;-76
2023/04/07 11:26:38;;;;;;;2.13;2.13;;;17.80;63.10;;;;;;5056630;28;43525;-76
2023/04/07 11:29:06;;;;;;;2.07;2.07;;;17.90;63.10;;;;;;5060950;28;44061;-74
2023/04/07 11:31:35;;;;;;;4.13;2.27;;;17.80;63.30;;;;;;5054221;28;43450;-75
2023/04/07 11:34:05;;;;;;;2.50;2.40;;;17.80;63.20;;;;;;5041538;28;43574;-76
2023/04/07 11:36:33;;;;;;;2.00;2.00;;;17.80;63.00;;;;;;5055772;28;43574;-76
2023/04/07 11:39:02;;;;;;;2.37;2.27;;;17.90;62.90;;;;;;5058428;28;43944;-77
2023/04/07 11:41:31;;;;;;;2.10;2.00;;;17.90;63.00;;;;;;5047263;28;44836;-77
2023/04/07 11:44:09;;;;;;;2.30;2.20;;;17.90;63.20;;;;;;5057918;28;43951;-76
2023/04/07 11:46:52;;;;;;;2.40;2.40;;;17.90;63.30;;;;;;5043581;28;43472;-76
2023/04/07 11:49:22;;;;;;;2.10;2.00;;;17.90;63.40;;;;;;5047827;28;45891;-77
2023/04/07 11:51:58;;;;;;;2.30;2.20;;;17.90;63.50;;;;;;5061172;28;43529;-77
2023/04/07 11:54:26;;;;;;;2.30;2.20;;;17.90;63.50;;;;;;5063884;28;44091;-76
2023/04/07 11:56:55;;;;;;;2.27;2.27;;;17.90;63.60;;;;;;5061653;28;44586;-77
2023/04/07 11:59:23;;;;;;;2.83;2.10;;;17.90;63.50;;;;;;5043538;28;45285;-76
2023/04/07 12:01:52;;;;;;;2.27;2.17;;;17.90;63.40;;;;;;5042784;28;44861;-76
2023/04/07 12:04:27;;;;;;;2.03;1.97;;;18.00;63.30;;;;;;5064197;28;43974;-76
2023/04/07 12:06:55;;;;;;;2.20;2.10;;;18.10;63.10;;;;;;5060672;28;44080;-76
2023/04/07 12:09:28;;;;;;;2.20;2.10;;;18.30;62.70;;;;;;5061326;28;43891;-76
2023/04/07 12:11:57;;;;;;;2.03;2.03;;;18.50;62.30;;;;;;5044434;28;45073;-76
2023/04/07 12:14:25;;;;;;;2.10;2.00;;;18.60;61.80;;;;;;5064436;28;43543;-76
2023/04/07 12:16:55;;;;;;;1.90;1.90;;;18.70;61.30;;;;;;5063835;28;43487;-76
2023/04/07 12:19:23;;;;;;;2.40;2.30;;;18.90;61.10;;;;;;5059912;28;43835;-76
2023/04/07 12:21:52;;;;;;;2.30;2.20;;;19.00;60.60;;;;;;5041097;28;44718;-76
2023/04/07 12:24:21;;;;;;;2.20;2.10;;;19.10;60.40;;;;;;5062328;28;43487;-76
2023/04/07 12:26:49;;;;;;;1.80;1.80;;;19.20;60.10;;;;;;5059365;28;43486;-77
2023/04/07 12:29:18;;;;;;;2.20;2.00;;;19.20;59.90;;;;;;5045408;28;45690;-76
2023/04/07 12:31:47;;;;;;;1.90;1.90;;;19.20;60.00;;;;;;5043710;28;43991;-78
2023/04/07 12:34:18;;;;;;;2.00;1.90;;;19.10;60.00;;;;;;5063416;28;43519;-76
2023/04/07 12:36:46;;;;;;;1.80;1.80;;;19.00;60.40;;;;;;5044953;28;43440;-76
2023/04/07 12:39:15;;;;;;;1.80;1.80;;;18.90;61.00;;;;;;5062382;28;43604;-76
2023/04/07 12:41:44;;;;;;;1.70;1.70;;;18.80;61.10;;;;;;5062178;28;44520;-76
2023/04/07 12:44:12;;;;;;;1.80;1.77;;;18.70;61.10;;;;;;5061046;28;43485;-76
2023/04/07 12:46:41;;;;;;;1.80;1.80;;;18.70;61.40;;;;;;5044679;28;43624;-76
2023/04/07 12:49:09;;;;;;;1.90;1.90;;;18.60;61.50;;;;;;5061713;28;43607;-77
2023/04/07 12:51:38;;;;;;;1.70;1.70;;;18.50;61.70;;;;;;5056316;28;43433;-76
2023/04/07 12:54:07;;;;;;;1.80;1.80;;;18.50;61.80;;;;;;5061595;28;44156;-76
2023/04/07 12:56:36;;;;;;;2.10;2.00;;;18.50;61.90;;;;;;5059012;28;43440;-76
2023/04/07 12:59:04;;;;;;;1.80;1.80;;;18.50;62.00;;;;;;5060761;28;43611;-76
2023/04/07 13:01:35;;;;;;;2.40;2.23;;;18.40;62.10;;;;;;5044128;28;45712;-77
2023/04/07 13:04:04;;;;;;;4.37;2.57;;;18.40;62.20;;;;;;5062668;28;43474;-76